sensor_id;sensor_type;location;lat;lon;timestamp;P1;durP1;ratioP1;P2;durP2;ratioP2
11671;SDS011;5892;43.412;24.612;2022-07-29T00:01:48;7.63;;;6.93;;
11671;SDS011;5892;43.412;24.612;2022-07-29T00:04:15;7.60;;;6.90;;
11671;SDS011;5892;43.412;24.612;2022-07-29T00:06:41;7.93;;;7.10;;
11671;SDS011;5892;43.412;24.612;2022-07-29T00:09:10;7.67;;;7.00;;
11671;SDS011;5892;43.412;24.612;2022-07-29T00:11:37;7.80;;;7.00;;
11671;SDS011;5892;43.412;24.612;2022-07-29T00:14:04;7.70;;;6.80;;
11671;SDS011;5892;43.412;24.612;2022-07-29T00:16:31;8.13;;;7.43;;
11671;SDS011;5892;43.412;24.612;2022-07-29T00:18:58;7.40;;;6.57;;
11671;SDS011;5892;43.412;24.612;2022-07-29T00:21:25;7.90;;;7.10;;
11671;SDS011;5892;43.412;24.612;2022-07-29T00:23:52;8.00;;;6.90;;
11671;SDS011;5892;43.412;24.612;2022-07-29T00:26:20;7.53;;;6.70;;
11671;SDS011;5892;43.412;24.612;2022-07-29T00:28:47;7.20;;;6.60;;
11671;SDS011;5892;43.412;24.612;2022-07-29T00:31:14;7.67;;;6.90;;
11671;SDS011;5892;43.412;24.612;2022-07-29T00:33:41;8.10;;;7.30;;
11671;SDS011;5892;43.412;24.612;2022-07-29T00:36:08;8.03;;;7.23;;
11671;SDS011;5892;43.412;24.612;2022-07-29T00:38:34;7.73;;;6.73;;
11671;SDS011;5892;43.412;24.612;2022-07-29T00:41:01;7.53;;;6.77;;
11671;SDS011;5892;43.412;24.612;2022-07-29T00:43:30;9.20;;;7.33;;
11671;SDS011;5892;43.412;24.612;2022-07-29T00:45:57;7.33;;;6.63;;
11671;SDS011;5892;43.412;24.612;2022-07-29T00:48:24;7.43;;;6.80;;
11671;SDS011;5892;43.412;24.612;2022-07-29T00:50:51;7.53;;;6.73;;
11671;SDS011;5892;43.412;24.612;2022-07-29T00:53:18;7.60;;;6.90;;
11671;SDS011;5892;43.412;24.612;2022-07-29T00:55:46;7.87;;;7.07;;
11671;SDS011;5892;43.412;24.612;2022-07-29T00:58:14;7.70;;;7.00;;
11671;SDS011;5892;43.412;24.612;2022-07-29T01:00:43;11.17;;;7.60;;
11671;SDS011;5892;43.412;24.612;2022-07-29T01:03:10;10.03;;;7.07;;
11671;SDS011;5892;43.412;24.612;2022-07-29T01:05:37;7.77;;;7.07;;
11671;SDS011;5892;43.412;24.612;2022-07-29T01:08:06;8.10;;;7.33;;
11671;SDS011;5892;43.412;24.612;2022-07-29T01:10:34;7.83;;;7.13;;
11671;SDS011;5892;43.412;24.612;2022-07-29T01:13:04;7.80;;;7.00;;
11671;SDS011;5892;43.412;24.612;2022-07-29T01:15:32;8.33;;;7.50;;
11671;SDS011;5892;43.412;24.612;2022-07-29T01:18:07;7.30;;;6.70;;
11671;SDS011;5892;43.412;24.612;2022-07-29T01:20:46;7.77;;;7.07;;
11671;SDS011;5892;43.412;24.612;2022-07-29T01:23:51;7.67;;;6.90;;
11671;SDS011;5892;43.412;24.612;2022-07-29T01:26:31;9.50;;;7.20;;
11671;SDS011;5892;43.412;24.612;2022-07-29T01:29:07;7.97;;;7.27;;
11671;SDS011;5892;43.412;24.612;2022-07-29T01:31:42;8.33;;;7.50;;
11671;SDS011;5892;43.412;24.612;2022-07-29T01:34:14;8.10;;;7.40;;
11671;SDS011;5892;43.412;24.612;2022-07-29T01:36:47;9.10;;;7.40;;
11671;SDS011;5892;43.412;24.612;2022-07-29T01:39:19;7.87;;;7.17;;
11671;SDS011;5892;43.412;24.612;2022-07-29T01:41:51;8.00;;;7.30;;
11671;SDS011;5892;43.412;24.612;2022-07-29T01:44:26;11.20;;;7.60;;
11671;SDS011;5892;43.412;24.612;2022-07-29T01:46:58;8.17;;;7.33;;
11671;SDS011;5892;43.412;24.612;2022-07-29T01:49:31;8.00;;;7.30;;
11671;SDS011;5892;43.412;24.612;2022-07-29T01:52:03;8.27;;;7.30;;
11671;SDS011;5892;43.412;24.612;2022-07-29T01:54:35;8.53;;;7.73;;
11671;SDS011;5892;43.412;24.612;2022-07-29T01:57:08;8.73;;;7.73;;
11671;SDS011;5892;43.412;24.612;2022-07-29T01:59:39;9.07;;;7.83;;
11671;SDS011;5892;43.412;24.612;2022-07-29T02:02:08;8.63;;;7.60;;
11671;SDS011;5892;43.412;24.612;2022-07-29T02:04:37;8.77;;;7.87;;
11671;SDS011;5892;43.412;24.612;2022-07-29T02:07:08;8.87;;;8.07;;
11671;SDS011;5892;43.412;24.612;2022-07-29T02:09:40;9.07;;;8.27;;
11671;SDS011;5892;43.412;24.612;2022-07-29T02:12:08;9.23;;;8.43;;
11671;SDS011;5892;43.412;24.612;2022-07-29T02:14:40;11.20;;;8.20;;
11671;SDS011;5892;43.412;24.612;2022-07-29T02:17:10;11.07;;;8.53;;
11671;SDS011;5892;43.412;24.612;2022-07-29T02:19:38;9.30;;;8.50;;
11671;SDS011;5892;43.412;24.612;2022-07-29T02:22:07;9.43;;;8.50;;
11671;SDS011;5892;43.412;24.612;2022-07-29T02:24:37;8.73;;;7.93;;
11671;SDS011;5892;43.412;24.612;2022-07-29T02:27:06;8.73;;;7.93;;
11671;SDS011;5892;43.412;24.612;2022-07-29T02:29:34;9.47;;;8.60;;
11671;SDS011;5892;43.412;24.612;2022-07-29T02:32:06;9.67;;;8.77;;
11671;SDS011;5892;43.412;24.612;2022-07-29T02:34:37;9.70;;;8.70;;
11671;SDS011;5892;43.412;24.612;2022-07-29T02:37:06;9.87;;;8.57;;
11671;SDS011;5892;43.412;24.612;2022-07-29T02:39:35;9.00;;;8.17;;
11671;SDS011;5892;43.412;24.612;2022-07-29T02:42:05;10.27;;;8.40;;
11671;SDS011;5892;43.412;24.612;2022-07-29T02:44:36;8.83;;;8.13;;
11671;SDS011;5892;43.412;24.612;2022-07-29T02:47:07;10.27;;;8.30;;
11671;SDS011;5892;43.412;24.612;2022-07-29T02:49:42;10.50;;;8.03;;
11671;SDS011;5892;43.412;24.612;2022-07-29T02:52:19;8.60;;;7.80;;
11671;SDS011;5892;43.412;24.612;2022-07-29T02:54:51;9.40;;;8.50;;
11671;SDS011;5892;43.412;24.612;2022-07-29T02:57:20;9.33;;;8.30;;
11671;SDS011;5892;43.412;24.612;2022-07-29T02:59:52;8.67;;;7.87;;
11671;SDS011;5892;43.412;24.612;2022-07-29T03:02:24;9.07;;;8.27;;
11671;SDS011;5892;43.412;24.612;2022-07-29T03:04:53;8.80;;;7.90;;
11671;SDS011;5892;43.412;24.612;2022-07-29T03:07:23;9.73;;;8.00;;
11671;SDS011;5892;43.412;24.612;2022-07-29T03:09:51;9.70;;;8.70;;
11671;SDS011;5892;43.412;24.612;2022-07-29T03:12:19;9.33;;;8.47;;
11671;SDS011;5892;43.412;24.612;2022-07-29T03:14:46;8.93;;;8.23;;
11671;SDS011;5892;43.412;24.612;2022-07-29T03:17:14;9.23;;;7.90;;
11671;SDS011;5892;43.412;24.612;2022-07-29T03:19:43;8.90;;;8.00;;
11671;SDS011;5892;43.412;24.612;2022-07-29T03:22:12;9.10;;;8.17;;
11671;SDS011;5892;43.412;24.612;2022-07-29T03:24:39;9.03;;;8.13;;
11671;SDS011;5892;43.412;24.612;2022-07-29T03:27:06;9.50;;;8.63;;
11671;SDS011;5892;43.412;24.612;2022-07-29T03:29:33;9.27;;;8.50;;
11671;SDS011;5892;43.412;24.612;2022-07-29T03:32:01;10.57;;;8.30;;
11671;SDS011;5892;43.412;24.612;2022-07-29T03:34:30;10.13;;;8.10;;
11671;SDS011;5892;43.412;24.612;2022-07-29T03:36:58;9.20;;;8.30;;
11671;SDS011;5892;43.412;24.612;2022-07-29T03:39:26;8.23;;;7.47;;
11671;SDS011;5892;43.412;24.612;2022-07-29T03:41:57;11.80;;;8.40;;
11671;SDS011;5892;43.412;24.612;2022-07-29T03:44:26;8.03;;;7.23;;
11671;SDS011;5892;43.412;24.612;2022-07-29T03:46:55;8.20;;;7.27;;
11671;SDS011;5892;43.412;24.612;2022-07-29T03:49:27;8.30;;;7.50;;
11671;SDS011;5892;43.412;24.612;2022-07-29T03:51:55;8.70;;;7.70;;
11671;SDS011;5892;43.412;24.612;2022-07-29T03:54:24;10.63;;;7.13;;
11671;SDS011;5892;43.412;24.612;2022-07-29T03:56:51;9.13;;;6.97;;
11671;SDS011;5892;43.412;24.612;2022-07-29T03:59:19;8.13;;;7.13;;
11671;SDS011;5892;43.412;24.612;2022-07-29T04:01:48;8.67;;;7.27;;
11671;SDS011;5892;43.412;24.612;2022-07-29T04:04:16;9.47;;;7.47;;
11671;SDS011;5892;43.412;24.612;2022-07-29T04:06:44;7.70;;;6.90;;
11671;SDS011;5892;43.412;24.612;2022-07-29T04:09:12;8.27;;;6.53;;
11671;SDS011;5892;43.412;24.612;2022-07-29T04:11:40;11.13;;;6.70;;
11671;SDS011;5892;43.412;24.612;2022-07-29T04:14:08;8.97;;;6.60;;
11671;SDS011;5892;43.412;24.612;2022-07-29T04:16:35;8.10;;;6.53;;
11671;SDS011;5892;43.412;24.612;2022-07-29T04:19:02;6.93;;;6.00;;
11671;SDS011;5892;43.412;24.612;2022-07-29T04:21:29;7.77;;;6.00;;
11671;SDS011;5892;43.412;24.612;2022-07-29T04:23:56;8.73;;;6.10;;
11671;SDS011;5892;43.412;24.612;2022-07-29T04:26:25;8.37;;;5.77;;
11671;SDS011;5892;43.412;24.612;2022-07-29T04:28:53;11.20;;;6.87;;
11671;SDS011;5892;43.412;24.612;2022-07-29T04:31:21;11.73;;;6.97;;
11671;SDS011;5892;43.412;24.612;2022-07-29T04:33:47;7.93;;;6.40;;
11671;SDS011;5892;43.412;24.612;2022-07-29T04:36:14;12.03;;;6.33;;
11671;SDS011;5892;43.412;24.612;2022-07-29T04:38:41;8.80;;;5.90;;
11671;SDS011;5892;43.412;24.612;2022-07-29T04:41:09;8.10;;;5.97;;
11671;SDS011;5892;43.412;24.612;2022-07-29T04:43:38;6.87;;;6.17;;
11671;SDS011;5892;43.412;24.612;2022-07-29T04:46:07;9.27;;;6.20;;
11671;SDS011;5892;43.412;24.612;2022-07-29T04:48:34;9.70;;;6.53;;
11671;SDS011;5892;43.412;24.612;2022-07-29T04:51:01;8.53;;;6.00;;
11671;SDS011;5892;43.412;24.612;2022-07-29T04:53:28;7.33;;;6.00;;
11671;SDS011;5892;43.412;24.612;2022-07-29T04:55:54;10.83;;;5.70;;
11671;SDS011;5892;43.412;24.612;2022-07-29T04:58:23;8.10;;;5.93;;
11671;SDS011;5892;43.412;24.612;2022-07-29T05:00:50;7.40;;;5.43;;
11671;SDS011;5892;43.412;24.612;2022-07-29T05:03:18;9.47;;;5.67;;
11671;SDS011;5892;43.412;24.612;2022-07-29T05:05:45;7.03;;;5.30;;
11671;SDS011;5892;43.412;24.612;2022-07-29T05:08:12;6.50;;;5.43;;
11671;SDS011;5892;43.412;24.612;2022-07-29T05:10:39;7.47;;;5.37;;
11671;SDS011;5892;43.412;24.612;2022-07-29T05:13:06;9.43;;;5.43;;
11671;SDS011;5892;43.412;24.612;2022-07-29T05:15:33;7.47;;;5.23;;
11671;SDS011;5892;43.412;24.612;2022-07-29T05:18:01;6.77;;;5.20;;
11671;SDS011;5892;43.412;24.612;2022-07-29T05:20:30;5.53;;;4.97;;
11671;SDS011;5892;43.412;24.612;2022-07-29T05:22:58;5.60;;;4.77;;
11671;SDS011;5892;43.412;24.612;2022-07-29T05:25:26;9.17;;;5.20;;
11671;SDS011;5892;43.412;24.612;2022-07-29T05:27:55;7.77;;;5.00;;
11671;SDS011;5892;43.412;24.612;2022-07-29T05:30:22;6.80;;;5.27;;
11671;SDS011;5892;43.412;24.612;2022-07-29T05:32:49;7.23;;;5.23;;
11671;SDS011;5892;43.412;24.612;2022-07-29T05:35:16;10.67;;;5.27;;
11671;SDS011;5892;43.412;24.612;2022-07-29T05:37:44;6.83;;;5.67;;
11671;SDS011;5892;43.412;24.612;2022-07-29T05:40:11;9.10;;;5.77;;
11671;SDS011;5892;43.412;24.612;2022-07-29T05:42:38;8.17;;;5.50;;
11671;SDS011;5892;43.412;24.612;2022-07-29T05:45:05;6.10;;;4.60;;
11671;SDS011;5892;43.412;24.612;2022-07-29T05:47:33;5.93;;;5.30;;
11671;SDS011;5892;43.412;24.612;2022-07-29T05:50:00;5.40;;;4.83;;
11671;SDS011;5892;43.412;24.612;2022-07-29T05:52:27;8.43;;;5.30;;
11671;SDS011;5892;43.412;24.612;2022-07-29T05:54:55;7.57;;;5.33;;
11671;SDS011;5892;43.412;24.612;2022-07-29T05:57:23;8.43;;;5.53;;
11671;SDS011;5892;43.412;24.612;2022-07-29T05:59:50;10.43;;;5.47;;
11671;SDS011;5892;43.412;24.612;2022-07-29T06:02:17;8.07;;;5.13;;
11671;SDS011;5892;43.412;24.612;2022-07-29T06:04:44;6.10;;;5.33;;
11671;SDS011;5892;43.412;24.612;2022-07-29T06:07:11;7.00;;;5.20;;
11671;SDS011;5892;43.412;24.612;2022-07-29T06:09:38;8.23;;;5.20;;
11671;SDS011;5892;43.412;24.612;2022-07-29T06:12:07;6.80;;;5.20;;
11671;SDS011;5892;43.412;24.612;2022-07-29T06:14:34;6.13;;;4.70;;
11671;SDS011;5892;43.412;24.612;2022-07-29T06:17:03;5.83;;;4.90;;
11671;SDS011;5892;43.412;24.612;2022-07-29T06:19:30;7.13;;;5.20;;
11671;SDS011;5892;43.412;24.612;2022-07-29T06:21:57;6.70;;;4.63;;
11671;SDS011;5892;43.412;24.612;2022-07-29T06:24:24;5.00;;;4.47;;
11671;SDS011;5892;43.412;24.612;2022-07-29T06:26:51;5.47;;;4.97;;
11671;SDS011;5892;43.412;24.612;2022-07-29T06:29:19;8.33;;;4.70;;
11671;SDS011;5892;43.412;24.612;2022-07-29T06:31:46;5.27;;;4.77;;
11671;SDS011;5892;43.412;24.612;2022-07-29T06:34:13;8.07;;;4.70;;
11671;SDS011;5892;43.412;24.612;2022-07-29T06:36:40;9.37;;;4.97;;
11671;SDS011;5892;43.412;24.612;2022-07-29T06:39:07;7.50;;;4.77;;
11671;SDS011;5892;43.412;24.612;2022-07-29T06:41:34;5.83;;;4.50;;
11671;SDS011;5892;43.412;24.612;2022-07-29T06:44:01;6.30;;;4.80;;
11671;SDS011;5892;43.412;24.612;2022-07-29T06:46:31;8.37;;;4.83;;
11671;SDS011;5892;43.412;24.612;2022-07-29T06:48:57;5.47;;;4.47;;
11671;SDS011;5892;43.412;24.612;2022-07-29T06:51:26;6.80;;;4.90;;
11671;SDS011;5892;43.412;24.612;2022-07-29T06:53:53;9.03;;;5.00;;
11671;SDS011;5892;43.412;24.612;2022-07-29T06:56:22;6.37;;;4.70;;
11671;SDS011;5892;43.412;24.612;2022-07-29T06:58:49;4.67;;;4.20;;
11671;SDS011;5892;43.412;24.612;2022-07-29T07:01:16;6.00;;;4.53;;
11671;SDS011;5892;43.412;24.612;2022-07-29T07:03:44;6.10;;;4.70;;
11671;SDS011;5892;43.412;24.612;2022-07-29T07:06:11;15.60;;;5.20;;
11671;SDS011;5892;43.412;24.612;2022-07-29T07:08:38;5.33;;;4.67;;
11671;SDS011;5892;43.412;24.612;2022-07-29T07:11:05;6.50;;;4.47;;
11671;SDS011;5892;43.412;24.612;2022-07-29T07:13:32;6.20;;;4.43;;
11671;SDS011;5892;43.412;24.612;2022-07-29T07:15:59;7.73;;;4.53;;
11671;SDS011;5892;43.412;24.612;2022-07-29T07:18:27;7.53;;;4.57;;
11671;SDS011;5892;43.412;24.612;2022-07-29T07:20:55;9.57;;;4.50;;
11671;SDS011;5892;43.412;24.612;2022-07-29T07:23:23;4.87;;;4.37;;
11671;SDS011;5892;43.412;24.612;2022-07-29T07:25:50;9.13;;;4.60;;
11671;SDS011;5892;43.412;24.612;2022-07-29T07:28:17;6.35;;;4.43;;
11671;SDS011;5892;43.412;24.612;2022-07-29T07:30:44;6.07;;;4.55;;
11671;SDS011;5892;43.412;24.612;2022-07-29T07:33:12;7.32;;;4.85;;
11671;SDS011;5892;43.412;24.612;2022-07-29T07:35:39;6.07;;;4.53;;
11671;SDS011;5892;43.412;24.612;2022-07-29T07:38:07;5.10;;;4.57;;
11671;SDS011;5892;43.412;24.612;2022-07-29T07:40:34;5.57;;;4.30;;
11671;SDS011;5892;43.412;24.612;2022-07-29T07:43:02;5.13;;;4.60;;
11671;SDS011;5892;43.412;24.612;2022-07-29T07:45:29;6.23;;;4.53;;
11671;SDS011;5892;43.412;24.612;2022-07-29T07:47:57;7.43;;;4.57;;
11671;SDS011;5892;43.412;24.612;2022-07-29T07:50:24;5.20;;;4.70;;
11671;SDS011;5892;43.412;24.612;2022-07-29T07:52:52;6.97;;;4.40;;
11671;SDS011;5892;43.412;24.612;2022-07-29T07:55:24;7.73;;;4.70;;
11671;SDS011;5892;43.412;24.612;2022-07-29T07:57:51;5.30;;;4.80;;
11671;SDS011;5892;43.412;24.612;2022-07-29T08:00:18;5.70;;;4.90;;
11671;SDS011;5892;43.412;24.612;2022-07-29T08:02:45;5.10;;;4.37;;
11671;SDS011;5892;43.412;24.612;2022-07-29T08:05:12;7.47;;;4.90;;
11671;SDS011;5892;43.412;24.612;2022-07-29T08:07:42;6.57;;;4.57;;
11671;SDS011;5892;43.412;24.612;2022-07-29T08:10:10;7.47;;;4.80;;
11671;SDS011;5892;43.412;24.612;2022-07-29T08:12:38;8.33;;;5.03;;
11671;SDS011;5892;43.412;24.612;2022-07-29T08:15:05;8.17;;;4.57;;
11671;SDS011;5892;43.412;24.612;2022-07-29T08:17:33;10.80;;;4.33;;
11671;SDS011;5892;43.412;24.612;2022-07-29T08:20:00;6.53;;;4.80;;
11671;SDS011;5892;43.412;24.612;2022-07-29T08:22:27;9.20;;;4.90;;
11671;SDS011;5892;43.412;24.612;2022-07-29T08:24:54;7.47;;;4.90;;
11671;SDS011;5892;43.412;24.612;2022-07-29T08:27:22;5.50;;;4.78;;
11671;SDS011;5892;43.412;24.612;2022-07-29T08:29:50;6.17;;;4.77;;
11671;SDS011;5892;43.412;24.612;2022-07-29T08:32:17;7.28;;;4.80;;
11671;SDS011;5892;43.412;24.612;2022-07-29T08:34:44;5.90;;;5.25;;
11671;SDS011;5892;43.412;24.612;2022-07-29T08:37:11;6.60;;;4.63;;
11671;SDS011;5892;43.412;24.612;2022-07-29T08:39:38;6.20;;;4.87;;
11671;SDS011;5892;43.412;24.612;2022-07-29T08:42:06;8.27;;;4.77;;
11671;SDS011;5892;43.412;24.612;2022-07-29T08:44:34;8.45;;;4.70;;
11671;SDS011;5892;43.412;24.612;2022-07-29T08:47:03;6.03;;;5.10;;
11671;SDS011;5892;43.412;24.612;2022-07-29T08:49:32;8.45;;;4.80;;
11671;SDS011;5892;43.412;24.612;2022-07-29T08:52:01;6.68;;;5.15;;
11671;SDS011;5892;43.412;24.612;2022-07-29T08:54:29;9.38;;;4.90;;
11671;SDS011;5892;43.412;24.612;2022-07-29T08:56:56;5.82;;;5.13;;
11671;SDS011;5892;43.412;24.612;2022-07-29T08:59:24;9.32;;;4.97;;
11671;SDS011;5892;43.412;24.612;2022-07-29T09:01:53;5.20;;;4.70;;
11671;SDS011;5892;43.412;24.612;2022-07-29T09:04:22;5.47;;;4.90;;
11671;SDS011;5892;43.412;24.612;2022-07-29T09:06:51;5.25;;;4.60;;
11671;SDS011;5892;43.412;24.612;2022-07-29T09:09:23;7.40;;;4.93;;
11671;SDS011;5892;43.412;24.612;2022-07-29T09:11:50;10.20;;;4.70;;
11671;SDS011;5892;43.412;24.612;2022-07-29T09:14:18;7.55;;;4.85;;
11671;SDS011;5892;43.412;24.612;2022-07-29T09:16:46;9.73;;;4.60;;
11671;SDS011;5892;43.412;24.612;2022-07-29T09:19:20;5.82;;;4.95;;
11671;SDS011;5892;43.412;24.612;2022-07-29T09:21:50;7.55;;;4.85;;
11671;SDS011;5892;43.412;24.612;2022-07-29T09:24:23;7.15;;;4.97;;
11671;SDS011;5892;43.412;24.612;2022-07-29T09:26:51;7.25;;;4.70;;
11671;SDS011;5892;43.412;24.612;2022-07-29T09:29:18;7.65;;;4.85;;
11671;SDS011;5892;43.412;24.612;2022-07-29T09:31:46;5.93;;;4.80;;
11671;SDS011;5892;43.412;24.612;2022-07-29T09:34:15;6.95;;;4.82;;
11671;SDS011;5892;43.412;24.612;2022-07-29T09:36:49;6.53;;;4.97;;
11671;SDS011;5892;43.412;24.612;2022-07-29T09:39:27;7.55;;;5.20;;
11671;SDS011;5892;43.412;24.612;2022-07-29T09:41:55;6.93;;;5.32;;
11671;SDS011;5892;43.412;24.612;2022-07-29T09:44:24;7.10;;;5.30;;
11671;SDS011;5892;43.412;24.612;2022-07-29T09:46:52;6.93;;;5.15;;
11671;SDS011;5892;43.412;24.612;2022-07-29T09:49:24;9.57;;;5.30;;
11671;SDS011;5892;43.412;24.612;2022-07-29T09:52:04;7.68;;;5.90;;
11671;SDS011;5892;43.412;24.612;2022-07-29T09:54:32;6.15;;;5.55;;
11671;SDS011;5892;43.412;24.612;2022-07-29T09:57:03;7.80;;;5.15;;
11671;SDS011;5892;43.412;24.612;2022-07-29T09:59:31;9.00;;;5.80;;
11671;SDS011;5892;43.412;24.612;2022-07-29T10:01:58;7.20;;;5.63;;
11671;SDS011;5892;43.412;24.612;2022-07-29T10:04:36;9.23;;;5.90;;
11671;SDS011;5892;43.412;24.612;2022-07-29T10:07:06;7.05;;;5.40;;
11671;SDS011;5892;43.412;24.612;2022-07-29T10:09:33;6.47;;;5.35;;
11671;SDS011;5892;43.412;24.612;2022-07-29T10:12:08;9.18;;;5.65;;
11671;SDS011;5892;43.412;24.612;2022-07-29T10:14:36;6.47;;;5.35;;
11671;SDS011;5892;43.412;24.612;2022-07-29T10:17:04;8.82;;;5.20;;
11671;SDS011;5892;43.412;24.612;2022-07-29T10:19:32;5.55;;;4.90;;
11671;SDS011;5892;43.412;24.612;2022-07-29T10:22:01;7.45;;;5.25;;
11671;SDS011;5892;43.412;24.612;2022-07-29T10:24:32;10.05;;;5.50;;
11671;SDS011;5892;43.412;24.612;2022-07-29T10:27:01;7.00;;;5.10;;
11671;SDS011;5892;43.412;24.612;2022-07-29T10:29:29;7.13;;;4.93;;
11671;SDS011;5892;43.412;24.612;2022-07-29T10:32:00;5.72;;;4.90;;
11671;SDS011;5892;43.412;24.612;2022-07-29T10:34:39;5.82;;;5.20;;
11671;SDS011;5892;43.412;24.612;2022-07-29T10:37:18;5.70;;;5.10;;
11671;SDS011;5892;43.412;24.612;2022-07-29T10:39:57;7.82;;;5.20;;
11671;SDS011;5892;43.412;24.612;2022-07-29T10:42:52;7.80;;;4.90;;
11671;SDS011;5892;43.412;24.612;2022-07-29T10:45:20;6.63;;;5.20;;
11671;SDS011;5892;43.412;24.612;2022-07-29T10:47:48;9.93;;;5.05;;
11671;SDS011;5892;43.412;24.612;2022-07-29T10:50:34;9.38;;;5.07;;
11671;SDS011;5892;43.412;24.612;2022-07-29T10:53:18;5.85;;;5.20;;
11671;SDS011;5892;43.412;24.612;2022-07-29T10:55:47;6.38;;;5.05;;
11671;SDS011;5892;43.412;24.612;2022-07-29T10:58:16;6.78;;;5.10;;
11671;SDS011;5892;43.412;24.612;2022-07-29T11:00:43;5.93;;;5.00;;
11671;SDS011;5892;43.412;24.612;2022-07-29T11:06:10;10.45;;;5.05;;
11671;SDS011;5892;43.412;24.612;2022-07-29T11:08:37;9.10;;;4.90;;
11671;SDS011;5892;43.412;24.612;2022-07-29T11:14:05;6.93;;;5.10;;
11671;SDS011;5892;43.412;24.612;2022-07-29T11:19:26;6.63;;;4.60;;
11671;SDS011;5892;43.412;24.612;2022-07-29T11:21:52;7.53;;;4.60;;
11671;SDS011;5892;43.412;24.612;2022-07-29T11:24:20;5.47;;;4.28;;
11671;SDS011;5892;43.412;24.612;2022-07-29T11:27:07;8.40;;;4.15;;
11671;SDS011;5892;43.412;24.612;2022-07-29T11:29:35;5.90;;;4.53;;
11671;SDS011;5892;43.412;24.612;2022-07-29T11:32:09;5.43;;;4.20;;
11671;SDS011;5892;43.412;24.612;2022-07-29T11:34:38;5.05;;;4.10;;
11671;SDS011;5892;43.412;24.612;2022-07-29T11:37:21;9.40;;;4.30;;
11671;SDS011;5892;43.412;24.612;2022-07-29T11:42:46;7.65;;;4.32;;
11671;SDS011;5892;43.412;24.612;2022-07-29T11:45:15;5.50;;;4.32;;
11671;SDS011;5892;43.412;24.612;2022-07-29T11:47:47;4.25;;;3.85;;
11671;SDS011;5892;43.412;24.612;2022-07-29T11:50:17;4.90;;;4.00;;
11671;SDS011;5892;43.412;24.612;2022-07-29T11:52:53;4.30;;;3.92;;
11671;SDS011;5892;43.412;24.612;2022-07-29T11:55:21;6.25;;;3.88;;
11671;SDS011;5892;43.412;24.612;2022-07-29T11:57:50;4.50;;;3.80;;
11671;SDS011;5892;43.412;24.612;2022-07-29T12:00:23;4.95;;;3.35;;
11671;SDS011;5892;43.412;24.612;2022-07-29T12:02:52;3.88;;;3.40;;
11671;SDS011;5892;43.412;24.612;2022-07-29T12:05:19;4.15;;;3.35;;
11671;SDS011;5892;43.412;24.612;2022-07-29T12:07:47;4.10;;;3.58;;
11671;SDS011;5892;43.412;24.612;2022-07-29T12:10:15;3.63;;;3.28;;
11671;SDS011;5892;43.412;24.612;2022-07-29T12:12:42;8.77;;;3.45;;
11671;SDS011;5892;43.412;24.612;2022-07-29T12:15:14;4.00;;;3.63;;
11671;SDS011;5892;43.412;24.612;2022-07-29T12:17:43;3.85;;;3.55;;
11671;SDS011;5892;43.412;24.612;2022-07-29T12:20:10;4.47;;;3.30;;
11671;SDS011;5892;43.412;24.612;2022-07-29T12:22:39;4.63;;;3.50;;
11671;SDS011;5892;43.412;24.612;2022-07-29T12:25:10;3.83;;;3.45;;
11671;SDS011;5892;43.412;24.612;2022-07-29T12:27:39;3.60;;;3.30;;
11671;SDS011;5892;43.412;24.612;2022-07-29T12:30:08;3.63;;;3.30;;
11671;SDS011;5892;43.412;24.612;2022-07-29T12:32:39;5.05;;;3.67;;
11671;SDS011;5892;43.412;24.612;2022-07-29T12:35:07;6.85;;;3.50;;
11671;SDS011;5892;43.412;24.612;2022-07-29T12:37:37;3.83;;;3.53;;
11671;SDS011;5892;43.412;24.612;2022-07-29T12:40:06;3.83;;;3.42;;
11671;SDS011;5892;43.412;24.612;2022-07-29T12:42:34;4.93;;;3.45;;
11671;SDS011;5892;43.412;24.612;2022-07-29T12:45:02;3.72;;;3.50;;
11671;SDS011;5892;43.412;24.612;2022-07-29T12:47:30;3.40;;;3.20;;
11671;SDS011;5892;43.412;24.612;2022-07-29T12:50:08;4.10;;;3.30;;
11671;SDS011;5892;43.412;24.612;2022-07-29T12:52:37;6.80;;;3.20;;
11671;SDS011;5892;43.412;24.612;2022-07-29T12:55:04;4.35;;;3.38;;
11671;SDS011;5892;43.412;24.612;2022-07-29T12:57:31;3.88;;;3.10;;
11671;SDS011;5892;43.412;24.612;2022-07-29T13:00:11;3.55;;;3.08;;
11671;SDS011;5892;43.412;24.612;2022-07-29T13:02:40;4.95;;;3.42;;
11671;SDS011;5892;43.412;24.612;2022-07-29T13:05:10;3.80;;;3.20;;
11671;SDS011;5892;43.412;24.612;2022-07-29T13:07:37;3.40;;;3.10;;
11671;SDS011;5892;43.412;24.612;2022-07-29T13:10:15;3.50;;;3.20;;
11671;SDS011;5892;43.412;24.612;2022-07-29T13:13:01;3.75;;;3.10;;
11671;SDS011;5892;43.412;24.612;2022-07-29T13:15:33;3.75;;;3.17;;
11671;SDS011;5892;43.412;24.612;2022-07-29T13:18:00;3.85;;;3.10;;
11671;SDS011;5892;43.412;24.612;2022-07-29T13:20:28;3.28;;;2.92;;
11671;SDS011;5892;43.412;24.612;2022-07-29T13:22:56;3.97;;;3.00;;
11671;SDS011;5892;43.412;24.612;2022-07-29T13:25:24;3.55;;;3.25;;
11671;SDS011;5892;43.412;24.612;2022-07-29T13:27:51;5.60;;;3.08;;
11671;SDS011;5892;43.412;24.612;2022-07-29T13:30:19;5.28;;;3.30;;
11671;SDS011;5892;43.412;24.612;2022-07-29T13:32:47;3.45;;;3.00;;
11671;SDS011;5892;43.412;24.612;2022-07-29T13:35:15;3.55;;;3.22;;
11671;SDS011;5892;43.412;24.612;2022-07-29T13:37:43;5.68;;;3.17;;
11671;SDS011;5892;43.412;24.612;2022-07-29T13:40:11;3.55;;;3.25;;
11671;SDS011;5892;43.412;24.612;2022-07-29T13:42:40;4.88;;;3.50;;
11671;SDS011;5892;43.412;24.612;2022-07-29T13:45:08;3.67;;;3.28;;
11671;SDS011;5892;43.412;24.612;2022-07-29T13:47:37;5.57;;;3.28;;
11671;SDS011;5892;43.412;24.612;2022-07-29T13:50:04;3.28;;;2.97;;
11671;SDS011;5892;43.412;24.612;2022-07-29T13:52:35;4.88;;;3.28;;
11671;SDS011;5892;43.412;24.612;2022-07-29T13:55:04;3.92;;;3.40;;
11671;SDS011;5892;43.412;24.612;2022-07-29T13:57:32;3.85;;;3.47;;
11671;SDS011;5892;43.412;24.612;2022-07-29T13:59:59;5.47;;;3.33;;
11671;SDS011;5892;43.412;24.612;2022-07-29T14:02:26;4.97;;;3.47;;
11671;SDS011;5892;43.412;24.612;2022-07-29T14:04:53;5.80;;;3.63;;
11671;SDS011;5892;43.412;24.612;2022-07-29T14:07:20;4.85;;;3.10;;
11671;SDS011;5892;43.412;24.612;2022-07-29T14:09:48;5.53;;;3.20;;
11671;SDS011;5892;43.412;24.612;2022-07-29T14:12:16;3.72;;;3.22;;
11671;SDS011;5892;43.412;24.612;2022-07-29T14:14:44;3.42;;;3.10;;
11671;SDS011;5892;43.412;24.612;2022-07-29T14:17:10;5.00;;;3.05;;
11671;SDS011;5892;43.412;24.612;2022-07-29T14:19:37;5.07;;;3.40;;
11671;SDS011;5892;43.412;24.612;2022-07-29T14:22:04;4.63;;;3.50;;
11671;SDS011;5892;43.412;24.612;2022-07-29T14:24:32;6.45;;;3.50;;
11671;SDS011;5892;43.412;24.612;2022-07-29T14:26:59;6.53;;;3.30;;
11671;SDS011;5892;43.412;24.612;2022-07-29T14:29:28;3.53;;;3.03;;
11671;SDS011;5892;43.412;24.612;2022-07-29T14:31:55;4.07;;;3.25;;
11671;SDS011;5892;43.412;24.612;2022-07-29T14:34:22;3.38;;;3.13;;
11671;SDS011;5892;43.412;24.612;2022-07-29T14:36:49;4.13;;;3.30;;
11671;SDS011;5892;43.412;24.612;2022-07-29T14:39:16;3.72;;;3.30;;
11671;SDS011;5892;43.412;24.612;2022-07-29T14:41:43;6.00;;;3.20;;
11671;SDS011;5892;43.412;24.612;2022-07-29T14:44:10;3.47;;;3.22;;
11671;SDS011;5892;43.412;24.612;2022-07-29T14:46:38;4.22;;;3.30;;
11671;SDS011;5892;43.412;24.612;2022-07-29T14:49:05;3.97;;;3.30;;
11671;SDS011;5892;43.412;24.612;2022-07-29T14:51:32;3.70;;;3.40;;
11671;SDS011;5892;43.412;24.612;2022-07-29T14:53:59;3.40;;;3.10;;
11671;SDS011;5892;43.412;24.612;2022-07-29T14:56:26;3.30;;;3.00;;
11671;SDS011;5892;43.412;24.612;2022-07-29T14:58:55;6.03;;;3.03;;
11671;SDS011;5892;43.412;24.612;2022-07-29T15:01:22;3.88;;;2.70;;
11671;SDS011;5892;43.412;24.612;2022-07-29T15:03:50;3.70;;;2.80;;
11671;SDS011;5892;43.412;24.612;2022-07-29T15:06:17;3.90;;;3.00;;
11671;SDS011;5892;43.412;24.612;2022-07-29T15:08:44;3.13;;;2.80;;
11671;SDS011;5892;43.412;24.612;2022-07-29T15:11:11;4.55;;;3.03;;